Time;durP1;ratioP1;P1;durP2;ratioP2;P2;SDS_P1;SDS_P2;PMS_P1;PMS_P2;Temp;Humidity;BMP_temperature;BMP_pressure;BME280_temperature;BME280_humidity;BME280_pressure;Samples;Min_cycle;Max_cycle;Signal;HPM_P1;HPM_P2
2022/05/13 00:01:51;;;;;;;10.52;4.32;;;;;;;;;;8266146;28;20050;-83
2022/05/13 00:05:54;;;;;;;7.75;4.22;;;;;;;;;;8269454;28;20050;-82
2022/05/13 00:10:00;;;;;;;8.10;4.20;;;;;;;;;;8297010;28;20489;-82
2022/05/13 00:14:04;;;;;;;18.10;5.30;;;;;;;;;;8297052;28;20041;-82
2022/05/13 00:18:07;;;;;;;11.32;3.95;;;;;;;;;;8296755;28;20497;-82
2022/05/13 00:22:10;;;;;;;10.07;4.65;;;;;;;;;;8296666;28;20068;-83
2022/05/13 00:26:14;;;;;;;6.78;4.55;;;;;;;;;;8295887;28;20050;-83
2022/05/13 00:30:17;;;;;;;8.20;4.43;;;;;;;;;;8295948;28;20061;-83
2022/05/13 00:34:21;;;;;;;9.70;4.53;;;;;;;;;;8295810;28;20153;-83
2022/05/13 00:38:24;;;;;;;9.43;4.60;;;;;;;;;;8296291;28;20046;-83
2022/05/13 00:42:27;;;;;;;7.47;4.40;;;;;;;;;;8295487;28;20046;-83
2022/05/13 00:46:32;;;;;;;8.98;4.43;;;;;;;;;;8295529;28;20054;-83
2022/05/13 00:50:36;;;;;;;8.93;4.30;;;;;;;;;;8295495;28;20060;-83
2022/05/13 00:54:41;;;;;;;9.80;4.90;;;;;;;;;;8295620;28;20049;-83
2022/05/13 00:58:47;;;;;;;9.35;5.15;;;;;;;;;;8295185;28;20627;-83
2022/05/13 01:02:50;;;;;;;12.20;5.20;;;;;;;;;;8264635;28;20054;-83
2022/05/13 01:06:54;;;;;;;8.77;5.18;;;;;;;;;;8263698;28;20085;-84
2022/05/13 01:10:58;;;;;;;7.60;4.78;;;;;;;;;;8263936;28;20108;-83
2022/05/13 01:15:06;;;;;;;7.45;4.43;;;;;;;;;;8263999;28;20507;-83
2022/05/13 01:19:08;;;;;;;9.68;4.75;;;;;;;;;;8288890;28;20413;-83
2022/05/13 01:23:14;;;;;;;10.85;4.78;;;;;;;;;;8294519;28;20054;-83
2022/05/13 01:27:17;;;;;;;6.50;4.43;;;;;;;;;;8294741;28;20046;-83
2022/05/13 01:31:24;;;;;;;8.90;5.05;;;;;;;;;;8294411;28;20069;-83
2022/05/13 01:35:27;;;;;;;7.18;4.22;;;;;;;;;;8294044;28;20100;-83
2022/05/13 01:39:31;;;;;;;11.95;4.72;;;;;;;;;;8293804;28;20072;-83
2022/05/13 01:43:34;;;;;;;7.60;4.18;;;;;;;;;;8294160;28;20382;-82
2022/05/13 01:47:37;;;;;;;7.68;4.50;;;;;;;;;;8294370;28;20050;-82
2022/05/13 01:51:41;;;;;;;8.35;4.63;;;;;;;;;;8293958;28;20061;-85
2022/05/13 01:55:45;;;;;;;8.85;4.65;;;;;;;;;;8293621;28;20049;-83
2022/05/13 01:59:47;;;;;;;7.63;4.75;;;;;;;;;;8293765;28;20046;-82
2022/05/13 02:03:50;;;;;;;9.27;4.40;;;;;;;;;;8293347;28;20062;-81
2022/05/13 02:07:53;;;;;;;12.02;5.38;;;;;;;;;;8293088;28;20042;-82
2022/05/13 02:11:57;;;;;;;7.85;4.57;;;;;;;;;;8291269;28;20077;-82
2022/05/13 02:16:00;;;;;;;8.00;4.40;;;;;;;;;;8265678;28;20069;-82
2022/05/13 02:20:03;;;;;;;8.68;4.97;;;;;;;;;;8265447;28;20046;-83
2022/05/13 02:24:07;;;;;;;13.85;5.30;;;;;;;;;;8266557;28;20065;-83
2022/05/13 02:28:11;;;;;;;6.68;4.93;;;;;;;;;;8266091;28;20410;-83
2022/05/13 02:32:13;;;;;;;15.85;5.22;;;;;;;;;;8266366;28;20043;-84
2022/05/13 02:36:16;;;;;;;44.78;16.15;;;;;;;;;;8266119;28;20046;-83
2022/05/13 02:40:19;;;;;;;21.85;9.77;;;;;;;;;;8266089;28;20043;-82
2022/05/13 02:44:23;;;;;;;9.90;5.00;;;;;;;;;;8265945;28;20054;-83
2022/05/13 02:48:27;;;;;;;10.27;5.57;;;;;;;;;;8266214;28;20042;-83
2022/05/13 02:52:29;;;;;;;11.57;4.90;;;;;;;;;;8266482;28;20513;-86
2022/05/13 02:56:32;;;;;;;11.18;5.50;;;;;;;;;;8266216;28;20039;-82
2022/05/13 03:00:36;;;;;;;13.38;5.78;;;;;;;;;;8266187;28;20053;-84
2022/05/13 03:04:38;;;;;;;10.85;5.63;;;;;;;;;;8265565;28;20050;-83
2022/05/13 03:08:40;;;;;;;12.23;7.20;;;;;;;;;;8265790;28;20077;-82
2022/05/13 03:12:43;;;;;;;13.27;6.07;;;;;;;;;;8265753;28;20070;-82
2022/05/13 03:16:47;;;;;;;19.13;8.70;;;;;;;;;;8265675;28;20042;-82
2022/05/13 03:20:50;;;;;;;17.25;7.40;;;;;;;;;;8269167;28;20050;-83
2022/05/13 03:24:52;;;;;;;11.30;7.05;;;;;;;;;;8271548;28;20050;-83
2022/05/13 03:28:55;;;;;;;18.15;7.85;;;;;;;;;;8271715;28;20046;-83
2022/05/13 03:33:02;;;;;;;13.30;6.85;;;;;;;;;;8271077;28;20053;-83
2022/05/13 03:37:05;;;;;;;15.13;6.60;;;;;;;;;;8296795;28;20053;-83
2022/05/13 03:41:08;;;;;;;11.80;7.75;;;;;;;;;;8271605;28;20062;-84
2022/05/13 03:45:12;;;;;;;14.48;7.45;;;;;;;;;;8270815;28;20062;-83
2022/05/13 03:49:16;;;;;;;11.23;7.45;;;;;;;;;;8270853;28;20053;-83
2022/05/13 03:53:19;;;;;;;19.02;7.10;;;;;;;;;;8271173;28;20458;-87
2022/05/13 03:57:21;;;;;;;13.00;7.03;;;;;;;;;;8270990;28;20046;-82
2022/05/13 04:01:24;;;;;;;36.45;13.48;;;;;;;;;;8270498;28;20042;-83
2022/05/13 04:09:48;;;;;;;11.98;6.07;;;;;;;;;;8270051;28;20046;-83
2022/05/13 04:18:10;;;;;;;12.85;6.03;;;;;;;;;;8295340;28;20042;-83
2022/05/13 04:22:14;;;;;;;18.48;6.60;;;;;;;;;;8301607;28;20057;-83
2022/05/13 04:26:17;;;;;;;9.95;5.30;;;;;;;;;;8269361;28;20132;-83
2022/05/13 04:30:20;;;;;;;12.30;5.75;;;;;;;;;;8274226;28;20049;-84
2022/05/13 04:34:23;;;;;;;11.73;5.93;;;;;;;;;;8270209;28;20100;-83
2022/05/13 04:38:26;;;;;;;9.48;5.57;;;;;;;;;;8269906;28;20062;-88
2022/05/13 04:46:49;;;;;;;9.27;5.53;;;;;;;;;;8288382;28;20089;-83
2022/05/13 04:50:54;;;;;;;10.00;6.15;;;;;;;;;;8300513;28;20481;-84
2022/05/13 04:54:58;;;;;;;13.23;5.57;;;;;;;;;;8299881;28;20050;-83
2022/05/13 04:59:01;;;;;;;10.20;5.10;;;;;;;;;;8299981;28;20176;-87
2022/05/13 05:03:03;;;;;;;8.65;4.32;;;;;;;;;;8299929;28;20049;-89
2022/05/13 05:07:06;;;;;;;9.15;5.70;;;;;;;;;;8299784;28;20046;-84
2022/05/13 05:11:12;;;;;;;15.55;8.45;;;;;;;;;;8277673;28;20093;-88
2022/05/13 05:15:15;;;;;;;12.00;6.55;;;;;;;;;;8268453;28;20073;-83
2022/05/13 05:19:18;;;;;;;16.13;9.93;;;;;;;;;;8268327;28;20042;-83
2022/05/13 05:23:23;;;;;;;13.30;7.63;;;;;;;;;;8267942;28;20490;-87
2022/05/13 05:27:27;;;;;;;25.42;15.82;;;;;;;;;;8276380;28;20129;-88
2022/05/13 05:31:30;;;;;;;6.15;3.58;;;;;;;;;;8290056;28;20050;-89
2022/05/13 05:35:34;;;;;;;8.43;4.90;;;;;;;;;;8267894;28;20057;-83
2022/05/13 05:39:37;;;;;;;11.45;4.82;;;;;;;;;;8267950;28;20479;-86
2022/05/13 05:43:41;;;;;;;10.15;3.85;;;;;;;;;;8266925;28;20160;-88
2022/05/13 05:47:44;;;;;;;7.05;2.90;;;;;;;;;;8266934;28;20050;-84
2022/05/13 05:51:46;;;;;;;5.97;2.95;;;;;;;;;;8266740;28;20046;-87
2022/05/13 06:00:11;;;;;;;5.45;2.28;;;;;;;;;;8293420;28;20066;-84
2022/05/13 06:04:14;;;;;;;5.75;2.30;;;;;;;;;;8297826;28;20045;-83
2022/05/13 06:08:17;;;;;;;5.60;2.47;;;;;;;;;;8298139;28;20058;-84
2022/05/13 06:12:20;;;;;;;4.10;2.20;;;;;;;;;;8297943;28;20046;-84
2022/05/13 06:16:26;;;;;;;5.60;2.63;;;;;;;;;;8298343;28;20112;-84
2022/05/13 06:20:32;;;;;;;8.23;2.08;;;;;;;;;;8264814;28;20046;-83
2022/05/13 06:24:34;;;;;;;5.57;2.10;;;;;;;;;;8266396;28;20105;-84
2022/05/13 06:28:37;;;;;;;8.07;2.22;;;;;;;;;;8278611;28;20042;-83
2022/05/13 06:32:42;;;;;;;4.65;1.85;;;;;;;;;;8297172;28;20120;-84
2022/05/13 06:36:45;;;;;;;7.57;2.20;;;;;;;;;;8297401;28;20107;-84
2022/05/13 06:40:49;;;;;;;3.55;1.60;;;;;;;;;;8297457;28;20053;-85
2022/05/13 06:44:52;;;;;;;2.85;2.10;;;;;;;;;;8296077;28;20054;-83
2022/05/13 06:48:58;;;;;;;3.60;1.88;;;;;;;;;;8306678;28;20105;-84
2022/05/13 06:53:01;;;;;;;5.65;2.60;;;;;;;;;;8318614;28;20045;-82
2022/05/13 06:57:04;;;;;;;2.83;1.70;;;;;;;;;;8320590;28;20049;-83
2022/05/13 07:01:07;;;;;;;3.67;1.83;;;;;;;;;;8321476;28;20502;-83
2022/05/13 07:05:13;;;;;;;2.25;1.60;;;;;;;;;;8305361;28;20045;-86
2022/05/13 07:09:16;;;;;;;6.63;1.90;;;;;;;;;;8303027;28;20489;-84
2022/05/13 07:13:19;;;;;;;4.78;1.70;;;;;;;;;;8275284;28;20057;-84
2022/05/13 07:17:23;;;;;;;3.78;1.60;;;;;;;;;;8271729;28;20097;-84
2022/05/13 07:21:27;;;;;;;5.25;2.25;;;;;;;;;;8271526;28;20046;-87
2022/05/13 07:25:31;;;;;;;3.85;1.70;;;;;;;;;;8271712;28;20050;-84
2022/05/13 07:29:33;;;;;;;4.35;1.80;;;;;;;;;;8271337;28;20050;-84
2022/05/13 07:33:37;;;;;;;3.90;1.85;;;;;;;;;;8271479;28;20069;-84
2022/05/13 07:37:41;;;;;;;5.47;2.47;;;;;;;;;;8271592;28;20089;-84
2022/05/13 07:41:44;;;;;;;6.25;2.17;;;;;;;;;;8270277;28;20054;-84
2022/05/13 07:45:47;;;;;;;8.57;2.17;;;;;;;;;;8269814;28;20494;-85
2022/05/13 07:49:49;;;;;;;3.35;2.00;;;;;;;;;;8270081;28;20501;-84
2022/05/13 07:53:54;;;;;;;7.57;2.50;;;;;;;;;;8269499;28;20050;-84
2022/05/13 07:57:57;;;;;;;5.47;1.98;;;;;;;;;;8269470;28;20064;-83
2022/05/13 08:02:00;;;;;;;5.47;2.78;;;;;;;;;;8269440;28;20051;-84
2022/05/13 08:06:06;;;;;;;4.20;1.88;;;;;;;;;;8270554;28;20046;-85
2022/05/13 08:10:13;;;;;;;2.50;1.45;;;;;;;;;;8269903;28;20046;-84
2022/05/13 08:14:16;;;;;;;5.85;1.70;;;;;;;;;;8269899;28;20077;-85
2022/05/13 08:18:20;;;;;;;2.65;1.77;;;;;;;;;;8270362;28;20057;-85
2022/05/13 08:22:23;;;;;;;5.05;1.42;;;;;;;;;;8269690;28;20055;-85
2022/05/13 08:26:28;;;;;;;2.45;1.50;;;;;;;;;;8269317;28;20050;-85
2022/05/13 08:30:31;;;;;;;4.97;2.13;;;;;;;;;;8269185;28;20043;-84
2022/05/13 08:34:34;;;;;;;5.03;1.77;;;;;;;;;;8268822;28;20129;-85
2022/05/13 08:38:39;;;;;;;3.25;1.60;;;;;;;;;;8269094;28;20054;-85
2022/05/13 08:42:47;;;;;;;4.93;2.30;;;;;;;;;;8268882;28;20058;-87
2022/05/13 08:46:58;;;;;;;6.78;1.73;;;;;;;;;;8268639;28;20058;-84
2022/05/13 08:51:10;;;;;;;5.85;1.90;;;;;;;;;;8269073;28;20049;-86
2022/05/13 08:55:25;;;;;;;4.93;1.73;;;;;;;;;;8269045;28;20049;-85
2022/05/13 08:59:36;;;;;;;5.15;1.70;;;;;;;;;;8268534;28;20392;-84
2022/05/13 09:03:41;;;;;;;3.85;1.58;;;;;;;;;;8269062;28;20046;-84
2022/05/13 09:07:46;;;;;;;4.10;1.70;;;;;;;;;;8268574;28;20050;-84
2022/05/13 09:11:56;;;;;;;5.75;1.83;;;;;;;;;;8269326;28;20494;-84
2022/05/13 09:16:01;;;;;;;5.03;1.67;;;;;;;;;;8283307;28;20052;-84
2022/05/13 09:20:10;;;;;;;4.63;1.65;;;;;;;;;;8298929;28;20466;-85
2022/05/13 09:24:13;;;;;;;5.32;1.70;;;;;;;;;;8298892;28;20041;-84
2022/05/13 09:28:17;;;;;;;3.40;1.73;;;;;;;;;;8298416;28;20058;-83
2022/05/13 09:32:28;;;;;;;7.93;1.80;;;;;;;;;;8294914;28;20042;-82
2022/05/13 09:36:35;;;;;;;6.60;2.40;;;;;;;;;;8265311;28;20055;-88
2022/05/13 09:40:39;;;;;;;6.25;1.60;;;;;;;;;;8271388;28;20494;-84
2022/05/13 09:44:43;;;;;;;8.30;2.15;;;;;;;;;;8265055;28;20451;-84
2022/05/13 09:48:59;;;;;;;4.40;2.20;;;;;;;;;;8295881;28;20054;-83
2022/05/13 09:53:05;;;;;;;3.85;1.70;;;;;;;;;;8295723;28;20046;-86
2022/05/13 09:57:12;;;;;;;3.15;1.67;;;;;;;;;;8297727;28;20053;-86
2022/05/13 10:01:21;;;;;;;3.58;1.52;;;;;;;;;;8286671;28;20042;-83
2022/05/13 10:05:28;;;;;;;3.30;1.65;;;;;;;;;;8266580;28;20046;-85
2022/05/13 10:13:59;;;;;;;2.58;1.48;;;;;;;;;;8233412;28;20454;-86
2022/05/13 10:18:08;;;;;;;2.47;1.73;;;;;;;;;;8266544;28;20042;-84
2022/05/13 10:22:23;;;;;;;3.13;1.67;;;;;;;;;;8266061;28;20054;-85
2022/05/13 10:26:30;;;;;;;5.57;2.05;;;;;;;;;;8266119;28;20050;-87
2022/05/13 10:30:39;;;;;;;5.50;1.85;;;;;;;;;;8297503;28;20046;-85
2022/05/13 10:34:47;;;;;;;3.28;1.70;;;;;;;;;;8304370;28;20490;-87
2022/05/13 10:39:00;;;;;;;3.22;1.92;;;;;;;;;;8304088;28;20132;-85
2022/05/13 10:43:08;;;;;;;7.85;2.15;;;;;;;;;;8285734;28;20097;-89
2022/05/13 10:47:20;;;;;;;8.27;2.20;;;;;;;;;;8293598;28;20062;-88
2022/05/13 10:51:27;;;;;;;;;;;;;;;;;;8271698;28;20054;-87
2022/05/13 10:55:37;;;;;;;4.97;1.60;;;;;;;;;;8274364;28;19922;-88
2022/05/13 11:00:02;;;;;;;3.80;1.50;;;;;;;;;;8266372;28;20121;-86
2022/05/13 11:04:15;;;;;;;2.83;1.80;;;;;;;;;;8266027;28;20081;-86
2022/05/13 11:08:25;;;;;;;6.13;2.05;;;;;;;;;;8266196;28;20050;-86
2022/05/13 11:12:39;;;;;;;5.80;2.10;;;;;;;;;;8273178;28;20048;-88
2022/05/13 11:16:50;;;;;;;5.55;2.13;;;;;;;;;;8297893;28;20058;-89
2022/05/13 11:20:57;;;;;;;;;;;;;;;;;;8298174;28;20441;-88
2022/05/13 11:29:46;;;;;;;7.90;2.20;;;;;;;;;;8296969;28;20045;-88
2022/05/13 11:33:58;;;;;;;4.38;1.65;;;;;;;;;;8273328;28;20054;-87
2022/05/13 11:38:09;;;;;;;4.97;1.70;;;;;;;;;;8267343;28;20485;-88
2022/05/13 11:42:36;;;;;;;3.40;1.67;;;;;;;;;;8264855;28;20061;-88
2022/05/13 11:46:56;;;;;;;5.13;1.88;;;;;;;;;;8289647;28;20430;-88
2022/05/13 11:51:11;;;;;;;6.68;2.30;;;;;;;;;;8265538;28;20046;-89
2022/05/13 11:55:18;;;;;;;3.40;1.73;;;;;;;;;;8293659;28;20454;-89
2022/05/13 11:59:47;;;;;;;7.43;2.20;;;;;;;;;;8296056;28;20407;-88
2022/05/13 12:04:36;;;;;;;5.70;2.42;;;;;;;;;;8285916;28;20104;-88
2022/05/13 12:08:43;;;;;;;5.53;2.10;;;;;;;;;;8264750;28;20155;-87
2022/05/13 12:13:05;;;;;;;3.35;1.70;;;;;;;;;;8264321;28;20066;-89
2022/05/13 12:17:17;;;;;;;9.68;2.00;;;;;;;;;;8264550;28;20519;-89
2022/05/13 12:21:33;;;;;;;;;;;;;;;;;;8266803;28;20073;-89
2022/05/13 12:25:50;;;;;;;4.25;1.80;;;;;;;;;;8274567;28;20079;-88
2022/05/13 12:30:21;;;;;;;4.75;1.83;;;;;;;;;;8270311;28;20054;-87
2022/05/13 12:39:07;;;;;;;3.88;2.08;;;;;;;;;;8270266;28;20046;-87
2022/05/13 12:43:22;;;;;;;9.50;1.77;;;;;;;;;;8281389;28;20741;-88
2022/05/13 12:47:31;;;;;;;3.88;1.88;;;;;;;;;;8274293;28;20542;-86
2022/05/13 12:52:04;;;;;;;6.70;2.70;;;;;;;;;;8264716;28;20046;-86
2022/05/13 12:56:36;;;;;;;7.43;2.45;;;;;;;;;;8264744;28;20450;-88
2022/05/13 13:00:47;;;;;;;6.53;2.10;;;;;;;;;;8258115;28;20422;-87
2022/05/13 13:05:00;;;;;;;6.43;2.58;;;;;;;;;;8263264;28;20073;-87
2022/05/13 13:09:04;;;;;;;5.53;2.10;;;;;;;;;;8265788;28;20046;-87
2022/05/13 13:13:20;;;;;;;8.52;2.78;;;;;;;;;;8264589;28;20050;-87
2022/05/13 13:17:34;;;;;;;8.25;2.00;;;;;;;;;;8263957;28;20053;-87
2022/05/13 13:21:38;;;;;;;4.05;2.08;;;;;;;;;;8286691;28;20046;-85
2022/05/13 13:25:43;;;;;;;7.10;2.50;;;;;;;;;;8263882;28;20057;-86
2022/05/13 13:29:49;;;;;;;8.48;3.85;;;;;;;;;;8265883;28;20043;-86
2022/05/13 13:33:55;;;;;;;6.25;2.40;;;;;;;;;;8264907;28;20046;-85
2022/05/13 13:38:02;;;;;;;5.03;2.03;;;;;;;;;;8289927;28;20065;-86
2022/05/13 13:42:09;;;;;;;13.15;4.40;;;;;;;;;;8249458;28;20057;-85
2022/05/13 13:46:22;;;;;;;10.10;3.20;;;;;;;;;;8264272;28;20132;-85
2022/05/13 13:50:30;;;;;;;3.65;2.00;;;;;;;;;;8261268;28;20068;-86
2022/05/13 13:54:38;;;;;;;7.47;2.78;;;;;;;;;;8266080;28;20054;-89
2022/05/13 13:59:06;;;;;;;7.97;2.33;;;;;;;;;;8268886;28;20438;-88
2022/05/13 14:03:17;;;;;;;4.53;2.03;;;;;;;;;;8274127;28;20097;-88
2022/05/13 14:07:21;;;;;;;8.35;2.60;;;;;;;;;;8264025;28;20153;-85
2022/05/13 14:11:27;;;;;;;6.85;2.35;;;;;;;;;;8271405;28;20069;-85
2022/05/13 14:15:34;;;;;;;6.35;2.10;;;;;;;;;;8278665;28;20060;-85
2022/05/13 14:19:51;;;;;;;3.65;2.05;;;;;;;;;;8265321;28;20054;-89
2022/05/13 14:24:12;;;;;;;5.75;2.10;;;;;;;;;;8262054;28;20105;-90
2022/05/13 14:28:33;;;;;;;4.40;2.00;;;;;;;;;;8259626;28;20042;-89
2022/05/13 14:32:47;;;;;;;5.60;2.67;;;;;;;;;;8260833;28;20073;-90
2022/05/13 14:37:17;;;;;;;8.65;2.40;;;;;;;;;;8260990;28;20046;-89
2022/05/13 14:41:51;;;;;;;7.53;3.25;;;;;;;;;;8265360;28;20038;-88
2022/05/13 14:46:16;;;;;;;7.57;2.63;;;;;;;;;;8260746;28;20059;-89
2022/05/13 14:50:49;;;;;;;4.63;1.88;;;;;;;;;;8272752;28;20042;-89
2022/05/13 14:55:05;;;;;;;7.00;1.77;;;;;;;;;;8271113;28;20056;-91
2022/05/13 14:59:23;;;;;;;4.90;2.00;;;;;;;;;;8269370;28;20105;-91
2022/05/13 15:03:43;;;;;;;3.60;1.95;;;;;;;;;;8271656;28;20124;-88
2022/05/13 15:07:59;;;;;;;7.13;2.10;;;;;;;;;;8259812;28;20049;-91
2022/05/13 15:12:17;;;;;;;6.40;2.80;;;;;;;;;;8267414;28;20050;-89
2022/05/13 15:16:32;;;;;;;6.28;1.92;;;;;;;;;;8289626;28;20058;-88
2022/05/13 15:20:50;;;;;;;4.93;2.33;;;;;;;;;;8297941;28;20418;-89
2022/05/13 15:25:12;;;;;;;8.18;2.10;;;;;;;;;;8296981;28;20569;-90
2022/05/13 15:29:26;;;;;;;7.10;2.28;;;;;;;;;;8297518;28;20046;-90
2022/05/13 15:33:50;;;;;;;3.92;2.38;;;;;;;;;;8297325;28;20050;-89
2022/05/13 15:38:02;;;;;;;4.07;2.00;;;;;;;;;;8297729;28;20060;-91
2022/05/13 15:42:08;;;;;;;7.55;1.98;;;;;;;;;;8297721;28;20145;-84
2022/05/13 15:46:20;;;;;;;8.38;2.25;;;;;;;;;;8291191;28;20058;-86
2022/05/13 15:55:01;;;;;;;16.60;3.22;;;;;;;;;;8263017;28;20449;-90
2022/05/13 15:59:19;;;;;;;9.32;2.47;;;;;;;;;;8270787;28;20057;-89
2022/05/13 16:03:37;;;;;;;13.50;4.85;;;;;;;;;;8273152;28;20470;-89
2022/05/13 16:12:24;;;;;;;14.07;3.50;;;;;;;;;;8281712;28;20054;-88
2022/05/13 16:17:07;;;;;;;8.95;3.20;;;;;;;;;;8247478;28;20086;-88
2022/05/13 16:21:18;;;;;;;8.40;2.78;;;;;;;;;;8271542;28;20475;-90
2022/05/13 16:25:24;;;;;;;7.18;2.90;;;;;;;;;;8269633;28;20046;-89
2022/05/13 16:29:27;;;;;;;5.95;3.40;;;;;;;;;;8269039;28;20050;-87
2022/05/13 16:33:30;;;;;;;10.07;3.00;;;;;;;;;;8272056;28;20074;-87
2022/05/13 16:37:44;;;;;;;5.90;3.38;;;;;;;;;;8274665;28;20045;-85
2022/05/13 16:41:48;;;;;;;7.38;2.80;;;;;;;;;;8265282;28;21068;-91
2022/05/13 16:45:52;;;;;;;8.70;3.08;;;;;;;;;;8268654;28;21340;-88
2022/05/13 16:49:57;;;;;;;10.82;4.47;;;;;;;;;;8269418;28;20042;-87
2022/05/13 16:54:02;;;;;;;8.48;3.78;;;;;;;;;;8281424;28;20054;-87
2022/05/13 16:58:06;;;;;;;5.32;3.00;;;;;;;;;;8289439;28;20568;-89
2022/05/13 17:02:10;;;;;;;7.88;5.72;;;;;;;;;;8279141;28;20068;-90
2022/05/13 17:06:14;;;;;;;14.05;8.35;;;;;;;;;;8273261;28;20072;-90
2022/05/13 17:19:17;;;;;;;9.00;4.63;;;;;;;;;;8286542;28;20045;-87
2022/05/13 17:23:20;;;;;;;5.70;3.53;;;;;;;;;;8288667;28;20039;-90
2022/05/13 17:27:28;;;;;;;6.38;3.80;;;;;;;;;;8294731;28;20498;-87
2022/05/13 17:31:31;;;;;;;5.93;3.90;;;;;;;;;;8290549;28;20042;-89
2022/05/13 17:35:34;;;;;;;8.25;4.10;;;;;;;;;;8294216;28;20049;-86
2022/05/13 17:39:38;;;;;;;9.40;4.25;;;;;;;;;;8290312;28;20479;-89
2022/05/13 17:43:42;;;;;;;8.48;5.00;;;;;;;;;;8300197;28;20524;-86
2022/05/13 17:47:52;;;;;;;12.70;6.35;;;;;;;;;;8277405;28;20467;-86
2022/05/13 17:52:08;;;;;;;9.48;5.60;;;;;;;;;;8291633;28;20064;-89
2022/05/13 17:56:47;;;;;;;18.27;8.07;;;;;;;;;;8305190;28;20038;-91
2022/05/13 18:01:07;;;;;;;20.38;9.00;;;;;;;;;;8296710;28;20042;-93
2022/05/13 18:05:25;;;;;;;17.00;9.05;;;;;;;;;;8303941;28;20045;-96
2022/05/13 18:09:33;;;;;;;13.07;7.57;;;;;;;;;;8316712;28;20367;-87
2022/05/13 18:13:40;;;;;;;12.57;6.93;;;;;;;;;;8303798;28;20057;-95
2022/05/13 18:17:48;;;;;;;9.63;6.38;;;;;;;;;;8309110;28;20058;-94
2022/05/13 18:22:04;;;;;;;9.50;6.82;;;;;;;;;;8328263;28;20094;-95
2022/05/13 18:26:33;;;;;;;13.13;7.70;;;;;;;;;;8312222;28;20489;-87
2022/05/13 18:31:17;;;;;;;13.65;8.07;;;;;;;;;;8278007;28;20469;-87
2022/05/13 18:35:28;;;;;;;20.33;12.45;;;;;;;;;;8291214;28;20413;-93
2022/05/13 18:46:04;;;;;;;19.33;11.55;;;;;;;;;;8295772;28;20482;-89
2022/05/13 18:48:25;;;;;;;18.25;12.63;;;;;;;;;;8282999;28;20516;-86
2022/05/13 18:53:43;;;;;;;12.05;7.05;;;;;;;;;;8292308;28;21163;-89
2022/05/13 18:58:06;;;;;;;13.38;8.48;;;;;;;;;;8298663;28;20053;-89
2022/05/13 19:02:11;;;;;;;11.25;7.70;;;;;;;;;;8291425;28;20038;-85
2022/05/13 19:06:16;;;;;;;17.42;10.25;;;;;;;;;;8295448;28;20129;-93
2022/05/13 19:14:52;;;;;;;17.33;10.65;;;;;;;;;;8288663;28;20657;-85
2022/05/13 19:18:59;;;;;;;18.45;11.05;;;;;;;;;;8301475;28;20125;-88
2022/05/13 19:23:07;;;;;;;39.90;16.92;;;;;;;;;;8276251;28;20497;-86
2022/05/13 19:27:23;;;;;;;27.55;14.15;;;;;;;;;;8298973;28;20125;-92
2022/05/13 19:31:37;;;;;;;24.10;12.57;;;;;;;;;;8278552;28;20051;-93
2022/05/13 19:35:44;;;;;;;23.80;11.82;;;;;;;;;;8275430;28;20490;-92
2022/05/13 19:39:49;;;;;;;32.22;15.85;;;;;;;;;;8286362;28;20050;-86
2022/05/13 19:43:55;;;;;;;34.05;14.75;;;;;;;;;;8291936;28;20101;-94
2022/05/13 19:48:12;;;;;;;20.95;11.98;;;;;;;;;;8283401;28;20061;-88
2022/05/13 19:52:22;;;;;;;16.40;11.82;;;;;;;;;;8271542;28;20483;-90
2022/05/13 19:56:29;;;;;;;21.45;13.75;;;;;;;;;;8275090;28;20050;-87
2022/05/13 20:00:37;;;;;;;17.40;12.68;;;;;;;;;;8282634;28;20073;-87
2022/05/13 20:10:38;;;;;;;16.02;11.88;;;;;;;;;;8295877;28;20041;-94
2022/05/13 20:13:35;;;;;;;19.58;12.98;;;;;;;;;;8283083;28;20502;-86
2022/05/13 20:17:46;;;;;;;17.02;11.13;;;;;;;;;;8294962;28;20069;-90
2022/05/13 20:26:16;;;;;;;21.50;11.52;;;;;;;;;;8282346;28;20057;-93
2022/05/13 20:30:20;;;;;;;18.33;10.95;;;;;;;;;;8288872;28;20484;-93
2022/05/13 20:34:30;;;;;;;16.05;10.38;;;;;;;;;;8295213;28;20461;-92
2022/05/13 20:38:37;;;;;;;17.45;10.60;;;;;;;;;;8289809;28;20465;-89
2022/05/13 20:42:41;;;;;;;19.38;12.10;;;;;;;;;;8276109;28;20050;-85
2022/05/13 20:46:54;;;;;;;18.42;12.05;;;;;;;;;;8263513;28;20057;-89
2022/05/13 20:51:02;;;;;;;21.90;12.43;;;;;;;;;;8276040;28;20061;-92
2022/05/13 20:55:07;;;;;;;21.83;13.07;;;;;;;;;;8292913;28;20053;-92
2022/05/13 20:59:13;;;;;;;25.38;13.75;;;;;;;;;;8295613;28;20050;-91
2022/05/13 21:03:20;;;;;;;27.52;13.85;;;;;;;;;;8288049;28;20439;-91
2022/05/13 21:07:27;;;;;;;26.60;13.75;;;;;;;;;;8274802;28;20064;-90
2022/05/13 21:11:30;;;;;;;19.83;13.18;;;;;;;;;;8274800;28;20041;-90
2022/05/13 21:15:35;;;;;;;18.75;12.70;;;;;;;;;;8283111;28;20043;-94
2022/05/13 21:19:38;;;;;;;19.55;11.48;;;;;;;;;;8280065;28;20042;-93
2022/05/13 21:23:42;;;;;;;18.52;11.30;;;;;;;;;;8290213;28;20532;-90
2022/05/13 21:27:45;;;;;;;14.73;10.52;;;;;;;;;;8265850;28;20054;-90
2022/05/13 21:40:31;;;;;;;15.90;11.63;;;;;;;;;;8298444;28;20057;-88
2022/05/13 21:44:33;;;;;;;15.73;11.90;;;;;;;;;;8298604;28;20148;-87
2022/05/13 21:48:36;;;;;;;17.50;10.82;;;;;;;;;;8298263;28;20072;-87
2022/05/13 21:52:39;;;;;;;19.05;10.15;;;;;;;;;;8298100;28;20508;-91
2022/05/13 21:56:43;;;;;;;14.15;9.90;;;;;;;;;;8298245;28;20057;-87
2022/05/13 22:01:07;;;;;;;14.13;9.52;;;;;;;;;;8277580;28;20043;-87
2022/05/13 22:05:10;;;;;;;13.48;8.68;;;;;;;;;;8267046;28;20047;-86
2022/05/13 22:09:13;;;;;;;13.02;9.18;;;;;;;;;;8270564;28;20136;-88
2022/05/13 22:13:17;;;;;;;12.38;8.70;;;;;;;;;;8292176;28;20073;-87
2022/05/13 22:17:20;;;;;;;13.95;9.60;;;;;;;;;;8297935;28;20056;-87
2022/05/13 22:21:23;;;;;;;11.38;8.40;;;;;;;;;;8298245;28;20567;-86
2022/05/13 22:25:25;;;;;;;10.43;8.27;;;;;;;;;;8288787;28;20590;-87
2022/05/13 22:29:30;;;;;;;12.15;8.45;;;;;;;;;;8266558;28;20051;-91
2022/05/13 22:33:33;;;;;;;13.43;9.00;;;;;;;;;;8266445;28;20407;-87
2022/05/13 22:37:36;;;;;;;16.08;8.90;;;;;;;;;;8280398;28;20042;-87
2022/05/13 22:41:39;;;;;;;11.65;9.13;;;;;;;;;;8297642;28;20056;-91
2022/05/13 22:45:43;;;;;;;14.65;9.40;;;;;;;;;;8297465;28;20128;-91
2022/05/13 22:49:47;;;;;;;13.13;9.45;;;;;;;;;;8298000;28;20050;-91
2022/05/13 22:53:49;;;;;;;15.23;8.95;;;;;;;;;;8298110;28;20049;-88
2022/05/13 22:57:53;;;;;;;16.65;9.05;;;;;;;;;;8297547;28;20046;-87
2022/05/13 23:01:58;;;;;;;13.25;7.90;;;;;;;;;;8265969;28;20475;-88
2022/05/13 23:14:41;;;;;;;13.65;8.32;;;;;;;;;;8297203;28;20049;-88
2022/05/13 23:18:46;;;;;;;11.95;7.70;;;;;;;;;;8297264;28;20050;-89
2022/05/13 23:22:48;;;;;;;13.05;8.15;;;;;;;;;;8296879;28;20104;-89
2022/05/13 23:26:51;;;;;;;10.60;7.47;;;;;;;;;;8281851;28;20101;-88
2022/05/13 23:30:54;;;;;;;14.93;6.95;;;;;;;;;;8265299;28;20046;-89
2022/05/13 23:34:58;;;;;;;12.43;7.20;;;;;;;;;;8265153;28;20487;-88
2022/05/13 23:39:01;;;;;;;10.93;7.60;;;;;;;;;;8270927;28;20051;-89
2022/05/13 23:43:04;;;;;;;17.10;8.45;;;;;;;;;;8271320;28;20047;-88
2022/05/13 23:47:07;;;;;;;10.30;6.70;;;;;;;;;;8270748;28;20058;-89
2022/05/13 23:51:11;;;;;;;12.65;7.00;;;;;;;;;;8270659;28;20490;-88
2022/05/13 23:59:35;;;;;;;12.55;8.20;;;;;;;;;;8270111;28;20031;-88
